createdAt,value
2023-12-16T00:00:11.555Z,621.53
2023-12-16T00:01:18.392Z,621.23
2023-12-16T00:02:25.138Z,620.47
2023-12-16T00:03:31.831Z,619.37
2023-12-16T00:04:38.507Z,598.30
2023-12-16T00:05:45.198Z,618.77
2023-12-16T00:06:51.827Z,619.90
2023-12-16T00:07:58.478Z,620.33
2023-12-16T00:09:05.106Z,599.90
2023-12-16T00:10:11.829Z,621.50
2023-12-16T00:11:18.858Z,619.93
2023-12-16T00:12:25.705Z,619.07
2023-12-16T00:13:32.693Z,618.13
2023-12-16T00:14:39.346Z,615.73
2023-12-16T00:15:46.217Z,613.87
2023-12-16T00:16:52.856Z,612.90
2023-12-16T00:17:59.637Z,612.93
2023-12-16T00:19:06.372Z,612.00
2023-12-16T00:20:13.016Z,611.10
2023-12-16T00:21:19.643Z,609.60
2023-12-16T00:22:26.327Z,609.03
2023-12-16T00:23:33.041Z,610.03
2023-12-16T00:24:39.675Z,607.87
2023-12-16T00:25:46.328Z,607.17
2023-12-16T00:26:52.976Z,605.13
2023-12-16T00:27:59.712Z,603.53
2023-12-16T00:29:06.325Z,603.80
2023-12-16T00:30:12.986Z,602.53
2023-12-16T00:31:19.697Z,603.13
2023-12-16T00:32:26.390Z,602.23
2023-12-16T00:33:33.115Z,603.07
2023-12-16T00:34:39.810Z,605.13
2023-12-16T00:35:46.482Z,603.53
2023-12-16T00:36:53.233Z,602.63
2023-12-16T00:37:59.870Z,601.93
2023-12-16T00:39:06.517Z,602.27
2023-12-16T00:40:13.209Z,603.83
2023-12-16T00:41:19.887Z,605.47
2023-12-16T00:42:26.572Z,582.90
2023-12-16T00:43:33.189Z,602.20
2023-12-16T00:44:39.856Z,601.40
2023-12-16T00:45:46.500Z,599.97
2023-12-16T00:46:53.126Z,598.40
2023-12-16T00:47:59.894Z,599.40
2023-12-16T00:49:06.796Z,600.03
2023-12-16T00:50:13.478Z,598.60
2023-12-16T00:51:20.134Z,600.77
2023-12-16T00:52:26.822Z,599.87
2023-12-16T00:53:33.440Z,578.30
2023-12-16T00:54:40.084Z,598.23
2023-12-16T00:55:46.704Z,597.33
2023-12-16T00:56:53.327Z,594.27
2023-12-16T00:57:59.993Z,594.03
2023-12-16T00:59:06.639Z,594.67
2023-12-16T01:00:13.293Z,594.40
2023-12-16T01:01:20.009Z,593.13
2023-12-16T01:02:26.649Z,591.80
2023-12-16T01:03:33.307Z,590.27
2023-12-16T01:04:39.998Z,590.00
2023-12-16T01:05:46.729Z,590.23
2023-12-16T01:06:53.384Z,590.07
2023-12-16T01:08:00.023Z,590.10
2023-12-16T01:09:06.682Z,588.77
2023-12-16T01:10:13.340Z,587.93
2023-12-16T01:11:19.993Z,587.53
2023-12-16T01:12:26.649Z,587.47
2023-12-16T01:13:33.386Z,587.83
2023-12-16T01:14:40.032Z,567.00
2023-12-16T01:15:46.702Z,587.10
2023-12-16T01:16:53.331Z,587.70
2023-12-16T01:18:00.028Z,588.33
2023-12-16T01:19:07.748Z,588.13
2023-12-16T01:20:14.565Z,570.37
2023-12-16T01:21:21.201Z,592.43
2023-12-16T01:22:27.849Z,591.43
2023-12-16T01:23:34.464Z,590.37
2023-12-16T01:24:41.107Z,591.87
2023-12-16T01:25:47.730Z,591.60
2023-12-16T01:26:54.368Z,591.23
2023-12-16T01:28:01.025Z,590.60
2023-12-16T01:29:07.996Z,588.60
2023-12-16T01:30:14.663Z,588.50
2023-12-16T01:31:21.314Z,587.67
2023-12-16T01:32:27.953Z,566.70
2023-12-16T01:33:34.590Z,585.97
2023-12-16T01:34:41.268Z,585.90
2023-12-16T01:35:47.912Z,584.17
2023-12-16T01:36:54.589Z,565.40
2023-12-16T01:38:01.205Z,586.20
2023-12-16T01:39:07.856Z,585.73
2023-12-16T01:40:14.655Z,584.93
2023-12-16T01:41:21.441Z,582.43
2023-12-16T01:42:28.080Z,582.93
2023-12-16T01:43:34.717Z,582.17
2023-12-16T01:44:41.361Z,559.87
2023-12-16T01:45:48.067Z,579.97
2023-12-16T01:46:54.861Z,578.47
2023-12-16T01:48:01.625Z,556.67
2023-12-16T01:49:08.300Z,577.77
2023-12-16T01:50:14.936Z,579.73
2023-12-16T01:51:21.556Z,581.83
2023-12-16T01:52:28.236Z,563.23
2023-12-16T01:53:34.868Z,583.87
2023-12-16T01:54:41.522Z,583.93
2023-12-16T01:55:48.133Z,582.07
2023-12-16T01:56:54.779Z,582.43
2023-12-16T01:58:01.455Z,582.70
2023-12-16T01:59:08.078Z,581.53
2023-12-16T02:00:14.703Z,578.83
2023-12-16T02:01:21.417Z,578.70
2023-12-16T02:02:28.144Z,580.53
2023-12-16T02:03:34.771Z,579.77
2023-12-16T02:04:41.441Z,558.00
2023-12-16T02:05:48.075Z,576.07
2023-12-16T02:06:54.813Z,573.83
2023-12-16T02:08:01.517Z,574.27
2023-12-16T02:09:08.149Z,574.53
2023-12-16T02:10:14.881Z,574.20
2023-12-16T02:11:21.530Z,574.17
2023-12-16T02:12:28.164Z,556.57
2023-12-16T02:13:34.806Z,576.20
2023-12-16T02:14:41.434Z,575.17
2023-12-16T02:15:48.091Z,573.43
2023-12-16T02:16:54.708Z,572.60
2023-12-16T02:18:01.359Z,572.03
2023-12-16T02:19:08.049Z,571.97
2023-12-16T02:20:14.800Z,571.07
2023-12-16T02:21:21.480Z,569.80
2023-12-16T02:22:28.203Z,568.83
2023-12-16T02:23:34.812Z,567.37
2023-12-16T02:24:41.461Z,564.23
2023-12-16T02:25:48.092Z,563.53
2023-12-16T02:26:54.728Z,565.20
2023-12-16T02:28:01.411Z,565.07
2023-12-16T02:29:08.056Z,564.13
2023-12-16T02:30:14.802Z,545.73
2023-12-16T02:31:21.545Z,563.37
2023-12-16T02:32:28.259Z,565.10
2023-12-16T02:33:34.946Z,566.43
2023-12-16T02:34:41.648Z,564.90
2023-12-16T02:35:48.296Z,565.00
2023-12-16T02:36:54.999Z,563.47
2023-12-16T02:38:01.666Z,560.47
2023-12-16T02:39:08.324Z,557.27
2023-12-16T02:40:15.058Z,556.20
2023-12-16T02:41:21.710Z,538.57
2023-12-16T02:42:28.379Z,560.83
2023-12-16T02:43:34.978Z,562.77
2023-12-16T02:44:41.636Z,561.90
2023-12-16T02:45:48.314Z,561.53
2023-12-16T02:46:54.950Z,560.77
2023-12-16T02:48:01.785Z,560.87
2023-12-16T02:49:08.519Z,540.93
2023-12-16T02:50:15.243Z,559.70
2023-12-16T02:51:21.888Z,559.00
2023-12-16T02:52:28.611Z,559.50
2023-12-16T02:53:35.250Z,557.90
2023-12-16T02:54:41.888Z,556.60
2023-12-16T02:55:48.523Z,556.03
2023-12-16T02:56:55.163Z,534.70
2023-12-16T02:58:01.849Z,552.13
2023-12-16T02:59:08.531Z,551.47
2023-12-16T03:00:15.173Z,551.60
2023-12-16T03:01:21.923Z,552.13
2023-12-16T03:02:28.580Z,552.97
2023-12-16T03:03:35.249Z,553.77
2023-12-16T03:04:41.888Z,535.23
2023-12-16T03:05:48.985Z,556.17
2023-12-16T03:06:55.721Z,555.73
2023-12-16T03:08:02.357Z,532.73
2023-12-16T03:09:09.003Z,550.30
2023-12-16T03:10:15.713Z,550.87
2023-12-16T03:11:22.364Z,548.67
2023-12-16T03:12:29.017Z,546.30
2023-12-16T03:13:35.665Z,545.70
2023-12-16T03:14:42.271Z,546.93
2023-12-16T03:15:48.969Z,527.33
2023-12-16T03:16:55.588Z,543.70
2023-12-16T03:18:02.320Z,542.27
2023-12-16T03:19:09.080Z,541.57
2023-12-16T03:20:15.718Z,541.47
2023-12-16T03:21:22.336Z,544.23
2023-12-16T03:22:29.006Z,544.63
2023-12-16T03:23:35.654Z,526.10
2023-12-16T03:24:42.289Z,545.30
2023-12-16T03:25:48.952Z,546.60
2023-12-16T03:26:55.630Z,546.73
2023-12-16T03:28:02.340Z,546.60
2023-12-16T03:29:08.959Z,543.80
2023-12-16T03:30:15.639Z,544.10
2023-12-16T03:31:22.271Z,543.80
2023-12-16T03:32:28.925Z,542.83
2023-12-16T03:33:35.598Z,542.97
2023-12-16T03:34:42.316Z,542.03
2023-12-16T03:35:48.952Z,540.80
2023-12-16T03:36:55.615Z,540.90
2023-12-16T03:38:02.256Z,540.93
2023-12-16T03:39:08.967Z,541.63
2023-12-16T03:40:15.693Z,543.67
2023-12-16T03:41:22.424Z,542.63
2023-12-16T03:42:29.041Z,542.53
2023-12-16T03:43:35.684Z,541.97
2023-12-16T03:44:42.327Z,523.70
2023-12-16T03:45:48.989Z,542.60
2023-12-16T03:46:55.601Z,541.80
2023-12-16T03:48:02.340Z,541.90
2023-12-16T03:49:09.032Z,521.73
2023-12-16T03:50:15.679Z,539.00
2023-12-16T03:51:22.358Z,540.03
2023-12-16T03:52:29.044Z,541.17
2023-12-16T03:53:35.653Z,541.40
2023-12-16T03:54:42.295Z,540.47
2023-12-16T03:55:48.912Z,539.43
2023-12-16T03:56:55.548Z,538.57
2023-12-16T03:58:02.206Z,539.77
2023-12-16T03:59:08.830Z,536.97
2023-12-16T04:00:15.540Z,535.57
2023-12-16T04:01:22.375Z,516.77
2023-12-16T04:02:29.052Z,537.20
2023-12-16T04:03:35.673Z,535.30
2023-12-16T04:04:42.332Z,534.03
2023-12-16T04:05:48.989Z,531.63
2023-12-16T04:06:55.645Z,533.47
2023-12-16T04:08:02.290Z,534.43
2023-12-16T04:09:08.906Z,514.73
2023-12-16T04:10:15.557Z,534.00
2023-12-16T04:11:22.218Z,533.50
2023-12-16T04:12:28.860Z,532.87
2023-12-16T04:13:35.486Z,514.10
2023-12-16T04:14:42.121Z,533.77
2023-12-16T04:15:48.781Z,532.30
2023-12-16T04:16:55.418Z,528.47
2023-12-16T04:18:02.116Z,510.33
2023-12-16T04:19:08.888Z,529.73
2023-12-16T04:20:15.520Z,529.00
2023-12-16T04:21:22.153Z,530.17
2023-12-16T04:22:28.808Z,532.20
2023-12-16T04:23:35.478Z,531.23
2023-12-16T04:24:42.111Z,530.10
2023-12-16T04:25:48.752Z,529.47
2023-12-16T04:26:55.412Z,528.60
2023-12-16T04:28:02.101Z,529.27
2023-12-16T04:29:08.698Z,513.30
2023-12-16T04:30:15.399Z,533.27
2023-12-16T04:31:22.034Z,533.20
2023-12-16T04:32:29.855Z,530.77
2023-12-16T04:33:36.624Z,528.73
2023-12-16T04:34:43.283Z,526.90
2023-12-16T04:35:49.900Z,526.07
2023-12-16T04:36:56.539Z,524.97
2023-12-16T04:38:03.187Z,523.73
2023-12-16T04:39:09.820Z,505.63
2023-12-16T04:40:16.501Z,524.77
2023-12-16T04:41:23.120Z,525.67
2023-12-16T04:42:29.748Z,525.20
2023-12-16T04:43:36.426Z,523.40
2023-12-16T04:44:43.056Z,522.63
2023-12-16T04:45:49.712Z,520.77
2023-12-16T04:46:56.337Z,520.57
2023-12-16T04:48:03.037Z,521.10
2023-12-16T04:49:09.832Z,519.10
2023-12-16T04:50:16.457Z,517.43
2023-12-16T04:51:23.075Z,518.07
2023-12-16T04:52:29.739Z,519.13
2023-12-16T04:53:36.335Z,519.97
2023-12-16T04:54:42.988Z,521.80
2023-12-16T04:55:52.738Z,502.43
2023-12-16T04:57:01.071Z,517.93
2023-12-16T04:58:07.711Z,516.63
2023-12-16T04:59:14.332Z,515.20
2023-12-16T05:00:21.026Z,513.63
2023-12-16T05:01:27.737Z,514.47
2023-12-16T05:02:34.368Z,514.00
2023-12-16T05:03:41.042Z,514.00
2023-12-16T05:04:47.699Z,515.70
2023-12-16T05:05:54.360Z,517.17
2023-12-16T05:07:01.041Z,518.30
2023-12-16T05:08:07.678Z,517.63
2023-12-16T05:09:14.306Z,516.73
2023-12-16T05:10:20.956Z,517.73
2023-12-16T05:11:27.776Z,499.10
2023-12-16T05:12:35.990Z,515.50
2023-12-16T05:13:43.193Z,512.93
2023-12-16T05:14:49.823Z,512.17
2023-12-16T05:15:56.465Z,495.17
2023-12-16T05:17:03.124Z,513.17
2023-12-16T05:18:09.905Z,511.93
2023-12-16T05:19:16.653Z,514.03
2023-12-16T05:20:23.305Z,498.07
2023-12-16T05:21:29.948Z,517.03
2023-12-16T05:22:36.764Z,517.47
2023-12-16T05:23:43.456Z,519.90
2023-12-16T05:24:50.072Z,517.73
2023-12-16T05:25:56.700Z,516.93
2023-12-16T05:27:03.358Z,516.20
2023-12-16T05:28:10.045Z,516.43
2023-12-16T05:29:16.674Z,518.00
2023-12-16T05:30:23.337Z,517.70
2023-12-16T05:31:29.960Z,515.63
2023-12-16T05:32:36.654Z,516.27
2023-12-16T05:33:43.338Z,517.17
2023-12-16T05:34:49.985Z,514.67
2023-12-16T05:35:56.755Z,512.13
2023-12-16T05:37:03.463Z,511.90
2023-12-16T05:38:10.079Z,512.07
2023-12-16T05:39:16.734Z,512.43
2023-12-16T05:40:23.410Z,514.43
2023-12-16T05:41:30.018Z,498.37
2023-12-16T05:42:36.654Z,516.60
2023-12-16T05:43:43.293Z,515.73
2023-12-16T05:44:49.929Z,516.20
2023-12-16T05:45:56.569Z,515.20
2023-12-16T05:47:03.190Z,514.00
2023-12-16T05:48:09.971Z,512.33
2023-12-16T05:49:16.715Z,493.20
2023-12-16T05:50:23.386Z,510.80
2023-12-16T05:51:30.007Z,511.90
2023-12-16T05:52:36.676Z,513.13
2023-12-16T05:53:43.304Z,515.40
2023-12-16T05:54:49.980Z,514.27
2023-12-16T05:55:56.605Z,513.07
2023-12-16T05:57:03.213Z,494.97
2023-12-16T05:58:09.893Z,511.10
2023-12-16T05:59:16.560Z,509.33
2023-12-16T06:00:23.179Z,506.47
2023-12-16T06:01:29.889Z,505.37
2023-12-16T06:02:36.527Z,506.20
2023-12-16T06:03:43.170Z,506.33
2023-12-16T06:04:49.808Z,487.80
2023-12-16T06:05:56.482Z,506.10
2023-12-16T06:07:03.130Z,507.50
2023-12-16T06:08:09.745Z,508.33
2023-12-16T06:09:16.410Z,506.73
2023-12-16T06:10:23.089Z,504.80
2023-12-16T06:11:29.698Z,506.63
2023-12-16T06:12:36.318Z,508.70
2023-12-16T06:13:42.940Z,509.37
2023-12-16T06:14:49.574Z,508.70
2023-12-16T06:16:07.693Z,507.60
2023-12-16T06:17:07.870Z,507.30
2023-12-16T06:18:14.549Z,509.10
2023-12-16T06:19:23.277Z,507.60
2023-12-16T06:20:31.428Z,505.00
2023-12-16T06:21:38.045Z,505.00
2023-12-16T06:22:44.689Z,504.37
2023-12-16T06:23:51.317Z,502.10
2023-12-16T06:24:57.980Z,501.80
2023-12-16T06:26:04.597Z,503.13
2023-12-16T06:27:11.248Z,502.67
2023-12-16T06:28:17.921Z,501.97
2023-12-16T06:29:24.550Z,501.33
2023-12-16T06:30:31.184Z,501.60
2023-12-16T06:31:37.847Z,501.73
2023-12-16T06:32:44.513Z,500.17
2023-12-16T06:33:51.181Z,500.03
2023-12-16T06:34:57.823Z,501.20
2023-12-16T06:36:04.441Z,500.03
2023-12-16T06:37:11.126Z,500.50
2023-12-16T06:38:17.770Z,500.43
2023-12-16T06:39:24.426Z,499.97
2023-12-16T06:40:31.079Z,498.43
2023-12-16T06:41:37.691Z,497.97
2023-12-16T06:42:44.352Z,500.83
2023-12-16T06:43:50.992Z,501.77
2023-12-16T06:44:57.645Z,482.67
2023-12-16T06:46:04.302Z,500.00
2023-12-16T06:47:10.907Z,500.93
2023-12-16T06:48:17.664Z,499.17
2023-12-16T06:49:24.414Z,498.23
2023-12-16T06:50:31.080Z,496.57
2023-12-16T06:51:37.732Z,494.50
2023-12-16T06:52:44.357Z,495.37
2023-12-16T06:53:50.989Z,495.60
2023-12-16T06:54:57.618Z,498.00
2023-12-16T06:56:04.313Z,500.23
2023-12-16T06:57:10.931Z,484.17
2023-12-16T06:58:17.614Z,500.57
2023-12-16T06:59:24.243Z,501.37
2023-12-16T07:00:30.874Z,501.37
2023-12-16T07:01:37.562Z,501.50
2023-12-16T07:02:44.254Z,503.13
2023-12-16T07:03:50.934Z,502.57
2023-12-16T07:04:59.686Z,501.97
2023-12-16T07:06:08.387Z,502.33
2023-12-16T07:07:15.037Z,502.23
2023-12-16T07:08:21.659Z,501.70
2023-12-16T07:09:28.311Z,501.00
2023-12-16T07:10:34.970Z,481.40
2023-12-16T07:11:41.604Z,498.07
2023-12-16T07:12:48.259Z,499.03
2023-12-16T07:13:54.891Z,499.20
2023-12-16T07:15:01.535Z,479.70
2023-12-16T07:16:08.175Z,494.30
2023-12-16T07:17:14.850Z,492.90
2023-12-16T07:18:21.576Z,492.53
2023-12-16T07:19:28.300Z,495.00
2023-12-16T07:20:34.940Z,496.37
2023-12-16T07:21:41.569Z,496.47
2023-12-16T07:22:48.196Z,480.50
2023-12-16T07:23:54.816Z,498.13
2023-12-16T07:25:03.956Z,498.97
2023-12-16T07:26:10.960Z,499.80
2023-12-16T07:27:17.621Z,500.23
2023-12-16T07:28:24.279Z,498.23
2023-12-16T07:29:30.884Z,499.93
2023-12-16T07:30:37.545Z,499.40
2023-12-16T07:31:44.186Z,497.23
2023-12-16T07:32:50.885Z,497.60
2023-12-16T07:33:57.713Z,498.00
2023-12-16T07:35:04.539Z,497.77
2023-12-16T07:36:11.204Z,497.87
2023-12-16T07:37:17.892Z,496.80
2023-12-16T07:38:24.508Z,480.17
2023-12-16T07:39:31.141Z,498.33
2023-12-16T07:40:37.864Z,499.13
2023-12-16T07:41:44.498Z,498.70
2023-12-16T07:42:51.182Z,481.67
2023-12-16T07:43:57.794Z,498.27
2023-12-16T07:45:04.497Z,498.30
2023-12-16T07:46:11.148Z,498.30
2023-12-16T07:47:17.762Z,481.60
2023-12-16T07:48:24.542Z,499.40
2023-12-16T07:49:31.335Z,497.97
2023-12-16T07:50:37.943Z,496.90
2023-12-16T07:51:44.607Z,498.27
2023-12-16T07:52:51.263Z,498.10
2023-12-16T07:54:00.673Z,497.50
2023-12-16T07:55:07.652Z,497.53
2023-12-16T07:56:14.266Z,495.83
2023-12-16T07:57:20.922Z,495.17
2023-12-16T07:58:27.610Z,495.40
2023-12-16T07:59:34.246Z,495.23
2023-12-16T08:00:40.922Z,495.53
2023-12-16T08:01:47.628Z,495.73
2023-12-16T08:02:54.224Z,493.67
2023-12-16T08:04:00.987Z,491.70
2023-12-16T08:05:07.641Z,491.00
2023-12-16T08:06:14.288Z,475.67
2023-12-16T08:07:20.895Z,493.23
2023-12-16T08:08:27.519Z,494.03
2023-12-16T08:09:34.159Z,492.40
2023-12-16T08:10:40.844Z,473.47
2023-12-16T08:11:47.477Z,490.33
2023-12-16T08:12:54.132Z,490.10
2023-12-16T08:14:00.749Z,489.73
2023-12-16T08:15:07.397Z,488.27
2023-12-16T08:16:14.086Z,486.17
2023-12-16T08:17:20.741Z,484.67
2023-12-16T08:18:27.493Z,483.27
2023-12-16T08:19:34.238Z,483.17
2023-12-16T08:20:40.933Z,483.03
2023-12-16T08:21:47.587Z,484.90
2023-12-16T08:22:54.236Z,483.67
2023-12-16T08:24:00.862Z,485.13
2023-12-16T08:25:07.507Z,488.27
2023-12-16T08:26:14.140Z,489.77
2023-12-16T08:27:20.772Z,489.03
2023-12-16T08:28:27.429Z,489.70
2023-12-16T08:29:34.032Z,473.60
2023-12-16T08:30:40.713Z,490.10
2023-12-16T08:31:47.437Z,491.20
2023-12-16T08:32:54.167Z,491.10
2023-12-16T08:34:00.970Z,493.13
2023-12-16T08:35:07.744Z,492.50
2023-12-16T08:36:14.437Z,491.47
2023-12-16T08:37:21.074Z,489.27
2023-12-16T08:38:27.680Z,486.80
2023-12-16T08:39:34.326Z,485.27
2023-12-16T08:40:41.001Z,487.23
2023-12-16T08:41:47.621Z,485.80
2023-12-16T08:42:54.281Z,486.57
2023-12-16T08:44:00.911Z,487.80
2023-12-16T08:45:07.549Z,486.83
2023-12-16T08:46:14.230Z,483.37
2023-12-16T08:47:20.843Z,482.10
2023-12-16T08:48:27.453Z,479.77
2023-12-16T08:49:34.729Z,479.53
2023-12-16T08:50:41.450Z,479.27
2023-12-16T08:51:48.114Z,479.93
2023-12-16T08:52:54.763Z,480.83
2023-12-16T08:54:01.601Z,481.77
2023-12-16T08:55:08.289Z,482.63
2023-12-16T08:56:14.904Z,482.10
2023-12-16T08:57:21.538Z,480.87
2023-12-16T08:58:28.283Z,479.33
2023-12-16T08:59:34.931Z,478.83
2023-12-16T09:00:41.622Z,478.27
2023-12-16T09:01:48.261Z,479.07
2023-12-16T09:02:54.882Z,479.40
2023-12-16T09:04:01.590Z,478.67
2023-12-16T09:05:08.223Z,479.73
2023-12-16T09:06:14.888Z,479.23
2023-12-16T09:07:21.552Z,462.10
2023-12-16T09:08:28.211Z,478.77
2023-12-16T09:09:34.830Z,479.17
2023-12-16T09:10:42.488Z,480.30
2023-12-16T09:11:49.100Z,480.57
2023-12-16T09:12:55.750Z,479.57
2023-12-16T09:14:02.356Z,480.57
2023-12-16T09:15:09.090Z,481.37
2023-12-16T09:16:15.790Z,482.27
2023-12-16T09:17:22.509Z,482.57
2023-12-16T09:18:29.160Z,465.53
2023-12-16T09:19:35.860Z,482.50
2023-12-16T09:20:42.523Z,482.90
2023-12-16T09:21:49.199Z,483.67
2023-12-16T09:22:55.843Z,467.07
2023-12-16T09:24:02.446Z,483.10
2023-12-16T09:25:09.134Z,481.40
2023-12-16T09:26:15.747Z,479.20
2023-12-16T09:27:22.365Z,461.93
2023-12-16T09:28:29.076Z,477.83
2023-12-16T09:29:35.710Z,477.47
2023-12-16T09:30:42.393Z,476.90
2023-12-16T09:31:49.115Z,459.80
2023-12-16T09:32:55.875Z,476.47
2023-12-16T09:34:02.609Z,475.30
2023-12-16T09:35:09.278Z,474.07
2023-12-16T09:36:16.186Z,476.17
2023-12-16T09:37:22.860Z,478.03
2023-12-16T09:38:29.462Z,479.97
2023-12-16T09:39:36.087Z,481.40
2023-12-16T09:40:42.758Z,483.23
2023-12-16T09:41:49.395Z,482.97
2023-12-16T09:42:56.078Z,464.53
2023-12-16T09:44:02.695Z,482.93
2023-12-16T09:45:09.328Z,482.40
2023-12-16T09:46:16.009Z,480.63
2023-12-16T09:47:22.625Z,463.17
2023-12-16T09:48:29.324Z,479.00
2023-12-16T09:49:35.990Z,478.53
2023-12-16T09:50:42.613Z,480.03
2023-12-16T09:51:49.240Z,462.93
2023-12-16T09:52:55.899Z,476.17
2023-12-16T09:54:02.532Z,476.53
2023-12-16T09:55:09.200Z,477.53
2023-12-16T09:56:15.816Z,462.30
2023-12-16T09:57:22.491Z,478.10
2023-12-16T09:58:29.211Z,479.53
2023-12-16T09:59:35.870Z,479.53
2023-12-16T10:00:42.510Z,478.83
2023-12-16T10:01:49.193Z,478.87
2023-12-16T10:02:55.860Z,478.03
2023-12-16T10:04:02.578Z,460.43
2023-12-16T10:05:09.255Z,474.73
2023-12-16T10:06:15.870Z,476.43
2023-12-16T10:07:22.523Z,475.17
2023-12-16T10:08:29.142Z,472.23
2023-12-16T10:09:35.757Z,475.03
2023-12-16T10:10:48.075Z,476.37
2023-12-16T10:11:53.953Z,475.20
2023-12-16T10:13:00.593Z,476.33
2023-12-16T10:14:07.229Z,477.43
2023-12-16T10:15:13.909Z,477.27
2023-12-16T10:16:20.541Z,478.00
2023-12-16T10:17:27.170Z,477.47
2023-12-16T10:18:33.838Z,476.93
2023-12-16T10:19:40.489Z,457.33
2023-12-16T10:20:47.091Z,471.60
2023-12-16T10:21:53.788Z,470.70
2023-12-16T10:23:00.520Z,469.40
2023-12-16T10:24:07.139Z,468.77
2023-12-16T10:25:13.923Z,470.77
2023-12-16T10:26:20.547Z,472.23
2023-12-16T10:27:27.189Z,473.83
2023-12-16T10:28:33.915Z,475.07
2023-12-16T10:29:47.225Z,475.63
2023-12-16T10:30:52.189Z,475.40
2023-12-16T10:31:59.017Z,474.60
2023-12-16T10:33:05.737Z,471.23
2023-12-16T10:34:12.411Z,469.87
2023-12-16T10:35:19.034Z,469.47
2023-12-16T10:36:25.659Z,469.33
2023-12-16T10:37:32.300Z,454.53
2023-12-16T10:38:38.947Z,470.30
2023-12-16T10:39:45.597Z,468.77
2023-12-16T10:40:52.226Z,469.87
2023-12-16T10:41:58.856Z,453.57
2023-12-16T10:43:05.551Z,468.60
2023-12-16T10:44:12.193Z,467.90
2023-12-16T10:45:19.050Z,469.50
2023-12-16T10:46:25.692Z,470.97
2023-12-16T10:47:32.316Z,472.53
2023-12-16T10:48:38.985Z,470.70
2023-12-16T10:49:45.664Z,452.67
2023-12-16T10:50:52.298Z,469.43
2023-12-16T10:51:58.984Z,470.53
2023-12-16T10:53:05.589Z,469.17
2023-12-16T10:54:12.466Z,468.87
2023-12-16T10:55:19.243Z,468.63
2023-12-16T10:56:25.977Z,467.23
2023-12-16T10:57:32.590Z,467.03
2023-12-16T10:58:39.253Z,466.93
2023-12-16T10:59:45.895Z,465.97
2023-12-16T11:00:52.632Z,465.93
2023-12-16T11:01:59.417Z,464.83
2023-12-16T11:03:06.069Z,465.07
2023-12-16T11:04:12.729Z,464.83
2023-12-16T11:05:19.826Z,465.33
2023-12-16T11:06:26.429Z,465.70
2023-12-16T11:07:33.142Z,467.40
2023-12-16T11:08:39.781Z,451.43
2023-12-16T11:09:46.925Z,467.30
2023-12-16T11:10:53.804Z,467.50
2023-12-16T11:12:00.448Z,466.70
2023-12-16T11:13:07.138Z,464.10
2023-12-16T11:14:13.757Z,463.07
2023-12-16T11:15:20.396Z,464.50
2023-12-16T11:16:27.081Z,465.00
2023-12-16T11:17:33.744Z,464.80
2023-12-16T11:18:40.375Z,465.50
2023-12-16T11:19:47.140Z,466.10
2023-12-16T11:20:53.813Z,466.63
2023-12-16T11:22:00.562Z,468.17
2023-12-16T11:23:07.196Z,468.80
2023-12-16T11:24:13.828Z,467.33
2023-12-16T11:25:20.525Z,467.27
2023-12-16T11:26:28.171Z,465.43
2023-12-16T11:27:35.009Z,465.33
2023-12-16T11:28:41.701Z,466.77
2023-12-16T11:29:48.294Z,467.57
2023-12-16T11:30:55.054Z,467.73
2023-12-16T11:32:01.694Z,465.23
2023-12-16T11:33:08.652Z,463.47
2023-12-16T11:34:15.374Z,463.93
2023-12-16T11:35:22.027Z,464.33
2023-12-16T11:36:28.679Z,450.13
2023-12-16T11:37:35.369Z,468.47
2023-12-16T11:38:42.051Z,470.60
2023-12-16T11:39:48.681Z,474.70
2023-12-16T11:40:55.286Z,480.47
2023-12-16T11:42:01.915Z,484.17
2023-12-16T11:43:08.553Z,484.97
2023-12-16T11:44:15.220Z,467.57
2023-12-16T11:45:21.865Z,487.33
2023-12-16T11:46:28.489Z,499.83
2023-12-16T11:47:35.162Z,494.13
2023-12-16T11:48:41.802Z,486.40
2023-12-16T11:49:48.439Z,482.13
2023-12-16T11:50:55.052Z,486.20
2023-12-16T11:52:01.742Z,474.60
2023-12-16T11:53:08.370Z,497.40
2023-12-16T11:54:15.000Z,514.47
2023-12-16T11:55:21.743Z,524.37
2023-12-16T11:56:28.413Z,529.53
2023-12-16T11:57:35.049Z,533.10
2023-12-16T11:58:41.697Z,535.80
2023-12-16T11:59:48.348Z,540.80
2023-12-16T12:00:55.060Z,528.97
2023-12-16T12:02:01.775Z,551.80
2023-12-16T12:03:08.665Z,554.93
2023-12-16T12:04:15.330Z,541.73
2023-12-16T12:05:22.138Z,568.97
2023-12-16T12:06:28.932Z,576.83
2023-12-16T12:07:35.596Z,581.47
2023-12-16T12:08:42.250Z,583.93
2023-12-16T12:09:48.898Z,587.07
2023-12-16T12:10:55.516Z,592.30
2023-12-16T12:12:02.148Z,580.00
2023-12-16T12:13:08.870Z,607.93
2023-12-16T12:14:15.538Z,613.20
2023-12-16T12:15:22.213Z,618.33
2023-12-16T12:16:28.911Z,623.43
2023-12-16T12:17:35.588Z,629.77
2023-12-16T12:18:42.348Z,632.73
2023-12-16T12:19:49.097Z,636.83
2023-12-16T12:20:55.707Z,643.10
2023-12-16T12:22:02.382Z,649.17
2023-12-16T12:23:09.003Z,657.23
2023-12-16T12:24:15.653Z,660.73
2023-12-16T12:25:22.280Z,665.13
2023-12-16T12:26:28.935Z,671.83
2023-12-16T12:27:35.587Z,678.27
2023-12-16T12:28:42.216Z,683.17
2023-12-16T12:29:48.885Z,686.67
2023-12-16T12:30:55.505Z,667.63
2023-12-16T12:32:02.144Z,696.93
2023-12-16T12:33:08.883Z,701.70
2023-12-16T12:34:15.609Z,707.47
2023-12-16T12:35:22.423Z,715.40
2023-12-16T12:36:29.048Z,721.97
2023-12-16T12:37:35.758Z,728.53
2023-12-16T12:38:42.390Z,710.57
2023-12-16T12:39:49.009Z,741.13
2023-12-16T12:40:55.666Z,745.10
2023-12-16T12:42:02.380Z,750.57
2023-12-16T12:43:08.972Z,726.73
2023-12-16T12:44:15.647Z,757.63
2023-12-16T12:45:22.301Z,761.67
2023-12-16T12:46:28.940Z,764.97
2023-12-16T12:47:35.643Z,743.27
2023-12-16T12:48:42.398Z,777.83
2023-12-16T12:49:49.088Z,782.30
2023-12-16T12:50:55.715Z,787.40
2023-12-16T12:52:02.366Z,790.47
2023-12-16T12:53:20.333Z,793.80
2023-12-16T12:54:20.599Z,771.20
2023-12-16T12:55:27.215Z,804.63
2023-12-16T12:56:33.897Z,808.23
2023-12-16T12:57:40.597Z,814.23
2023-12-16T12:58:47.202Z,819.93
2023-12-16T13:00:00.619Z,824.47
2023-12-16T13:01:05.542Z,799.57
2023-12-16T13:02:12.379Z,831.30
2023-12-16T13:03:19.045Z,833.40
2023-12-16T13:04:25.721Z,808.73
2023-12-16T13:05:32.416Z,840.53
2023-12-16T13:06:39.124Z,844.63
2023-12-16T13:07:45.835Z,819.97
2023-12-16T13:08:52.509Z,851.87
2023-12-16T13:09:59.136Z,851.67
2023-12-16T13:11:06.590Z,851.70
2023-12-16T13:12:13.470Z,850.97
2023-12-16T13:13:20.124Z,849.27
2023-12-16T13:14:29.517Z,848.40
2023-12-16T13:15:53.281Z,847.23
2023-12-16T13:16:48.019Z,845.30
2023-12-16T13:17:56.052Z,842.67
2023-12-16T13:19:04.142Z,840.10
2023-12-16T13:20:10.823Z,837.73
2023-12-16T13:21:17.570Z,835.57
2023-12-16T13:22:24.249Z,804.50
2023-12-16T13:23:30.895Z,828.03
2023-12-16T13:24:37.544Z,825.57
2023-12-16T13:25:44.195Z,824.37
2023-12-16T13:26:50.862Z,822.87
2023-12-16T13:27:57.496Z,820.67
2023-12-16T13:29:04.179Z,819.03
2023-12-16T13:30:11.240Z,786.33
2023-12-16T13:31:17.947Z,814.17
2023-12-16T13:32:24.590Z,813.23
2023-12-16T13:33:31.355Z,781.27
2023-12-16T13:34:38.073Z,808.47
2023-12-16T13:35:44.743Z,807.67
2023-12-16T13:36:52.722Z,805.70
2023-12-16T13:38:00.165Z,805.80
2023-12-16T13:39:06.814Z,804.47
2023-12-16T13:40:13.434Z,799.17
2023-12-16T13:41:20.068Z,768.07
2023-12-16T13:42:26.722Z,797.30
2023-12-16T13:43:33.416Z,795.07
2023-12-16T13:44:40.126Z,792.63
2023-12-16T13:45:46.755Z,790.07
2023-12-16T13:46:53.409Z,788.03
2023-12-16T13:48:00.210Z,787.20
2023-12-16T13:49:07.291Z,784.03
2023-12-16T13:50:14.008Z,781.83
2023-12-16T13:51:20.695Z,777.70
2023-12-16T13:52:27.326Z,774.97